SAS64P ENTC-ENGM
Flight info
| Callsign | SAS64P |
|---|---|
| Flight time | 1h 43m |
| Altitude | 38000 |
| Route | AMIMO DCT TUXOT Z101 SOMUB DCT BELGU |
| Aircraft | A319/M-SDE3FGIJ1RWXY/LB1 |
Departure
| Time | 2026-05-05 11:18 |
|---|---|
| Airport | Tromsø Airport (ENTC) |
Arrival
| Time | 2026-05-05 13:01 |
|---|---|
| Airport | Oslo-Gardermoen International Airport (ENGM) |
| Time | Latitude | Longitude | Altitude | Speed | Heading |
|---|---|---|---|---|---|
| 2026-05-05 10:58 | 69.68014 | 18.90966 | 36 ft | 0 kts | 284° |
| 2026-05-05 11:11 | 69.68013 | 18.90974 | 34 ft | 3 kts | 284° |
| 2026-05-05 11:12 | 69.68007 | 18.91047 | 34 ft | 4 kts | 283° |
| 2026-05-05 11:12 | 69.68001 | 18.91122 | 34 ft | 4 kts | 280° |
| 2026-05-05 11:12 | 69.67998 | 18.91198 | 32 ft | 4 kts | 265° |
| 2026-05-05 11:12 | 69.68005 | 18.91268 | 35 ft | 4 kts | 224° |
| 2026-05-05 11:13 | 69.68017 | 18.91290 | 33 ft | 1 kts | 193° |
| 2026-05-05 11:13 | 69.68019 | 18.91291 | 33 ft | 0 kts | 193° |
| 2026-05-05 11:15 | 69.68011 | 18.91286 | 34 ft | 6 kts | 193° |
| 2026-05-05 11:15 | 69.67953 | 18.91246 | 36 ft | 12 kts | 193° |
| 2026-05-05 11:15 | 69.67857 | 18.91186 | 37 ft | 16 kts | 192° |
| 2026-05-05 11:16 | 69.67749 | 18.91114 | 37 ft | 17 kts | 193° |
| 2026-05-05 11:16 | 69.67652 | 18.91077 | 38 ft | 9 kts | 160° |
| 2026-05-05 11:16 | 69.67634 | 18.91146 | 38 ft | 0 kts | 106° |
| 2026-05-05 11:17 | 69.67633 | 18.91156 | 38 ft | 3 kts | 104° |
| 2026-05-05 11:17 | 69.67621 | 18.91323 | 39 ft | 11 kts | 97° |
| 2026-05-05 11:17 | 69.67660 | 18.91441 | 38 ft | 4 kts | 13° |
| 2026-05-05 11:17 | 69.67685 | 18.91459 | 38 ft | 18 kts | 14° |
| 2026-05-05 11:18 | 69.68024 | 18.91682 | 35 ft | 82 kts | 13° |
| 2026-05-05 11:18 | 69.68790 | 18.92194 | 31 ft | 140 kts | 13° |
| 2026-05-05 11:18 | 69.69844 | 18.92895 | 339 ft | 162 kts | 13° |
| 2026-05-05 11:18 | 69.70916 | 18.93644 | 1091 ft | 156 kts | 14° |
| 2026-05-05 11:19 | 69.71953 | 18.94388 | 1770 ft | 156 kts | 15° |
| 2026-05-05 11:19 | 69.73049 | 18.95156 | 2226 ft | 171 kts | 15° |
| 2026-05-05 11:19 | 69.74274 | 18.95978 | 2596 ft | 190 kts | 15° |
| 2026-05-05 11:19 | 69.75643 | 18.96873 | 2954 ft | 215 kts | 14° |
| 2026-05-05 11:20 | 69.77176 | 18.97539 | 3631 ft | 230 kts | 357° |
| 2026-05-05 11:20 | 69.78650 | 18.95674 | 4492 ft | 242 kts | 318° |
| 2026-05-05 11:20 | 69.79521 | 18.91458 | 5467 ft | 250 kts | 291° |
| 2026-05-05 11:20 | 69.79958 | 18.86565 | 6478 ft | 252 kts | 281° |
| 2026-05-05 11:21 | 69.80247 | 18.81557 | 7482 ft | 254 kts | 281° |
| 2026-05-05 11:21 | 69.80522 | 18.76474 | 8454 ft | 257 kts | 281° |
| 2026-05-05 11:21 | 69.80555 | 18.71290 | 9424 ft | 261 kts | 260° |
| 2026-05-05 11:21 | 69.79931 | 18.66342 | 10299 ft | 266 kts | 240° |
| 2026-05-05 11:22 | 69.78691 | 18.62116 | 10733 ft | 289 kts | 218° |
| 2026-05-05 11:22 | 69.76902 | 18.58984 | 11019 ft | 313 kts | 210° |
| 2026-05-05 11:22 | 69.74948 | 18.55844 | 11503 ft | 327 kts | 209° |
| 2026-05-05 11:22 | 69.72947 | 18.52644 | 12290 ft | 331 kts | 210° |
| 2026-05-05 11:23 | 69.70917 | 18.49387 | 13119 ft | 335 kts | 210° |
| 2026-05-05 11:23 | 69.68875 | 18.46104 | 13867 ft | 338 kts | 210° |
| 2026-05-05 11:23 | 69.66809 | 18.42782 | 14560 ft | 342 kts | 211° |
| 2026-05-05 11:23 | 69.64717 | 18.39419 | 15236 ft | 346 kts | 210° |
| 2026-05-05 11:24 | 69.62606 | 18.36029 | 15917 ft | 349 kts | 210° |
| 2026-05-05 11:24 | 69.60473 | 18.32604 | 16619 ft | 353 kts | 210° |
| 2026-05-05 11:24 | 69.58316 | 18.29148 | 17294 ft | 358 kts | 210° |
| 2026-05-05 11:24 | 69.56126 | 18.25649 | 17916 ft | 364 kts | 210° |
| 2026-05-05 11:25 | 69.53905 | 18.22113 | 18537 ft | 367 kts | 210° |
| 2026-05-05 11:25 | 69.51663 | 18.18558 | 19174 ft | 369 kts | 210° |
| 2026-05-05 11:25 | 69.49410 | 18.15004 | 19843 ft | 371 kts | 210° |
| 2026-05-05 11:25 | 69.47139 | 18.11429 | 20485 ft | 374 kts | 210° |
| 2026-05-05 11:26 | 69.44854 | 18.07837 | 21102 ft | 377 kts | 209° |
| 2026-05-05 11:26 | 69.42552 | 18.04236 | 21742 ft | 379 kts | 209° |
| 2026-05-05 11:26 | 69.40265 | 18.00667 | 22369 ft | 381 kts | 209° |
| 2026-05-05 11:26 | 69.37936 | 17.97027 | 22997 ft | 383 kts | 209° |
| 2026-05-05 11:27 | 69.35609 | 17.93289 | 23515 ft | 386 kts | 210° |
| 2026-05-05 11:27 | 69.33275 | 17.89447 | 23974 ft | 390 kts | 211° |
| 2026-05-05 11:27 | 69.30924 | 17.85545 | 24419 ft | 393 kts | 211° |
| 2026-05-05 11:27 | 69.28554 | 17.81626 | 24870 ft | 397 kts | 210° |
| 2026-05-05 11:28 | 69.26155 | 17.77688 | 25281 ft | 401 kts | 210° |
| 2026-05-05 11:28 | 69.23724 | 17.73726 | 25685 ft | 405 kts | 210° |
| 2026-05-05 11:28 | 69.21268 | 17.69747 | 26114 ft | 409 kts | 210° |
| 2026-05-05 11:28 | 69.18787 | 17.65761 | 26524 ft | 412 kts | 210° |
| 2026-05-05 11:29 | 69.16289 | 17.61761 | 26927 ft | 416 kts | 210° |
| 2026-05-05 11:29 | 69.13764 | 17.57718 | 27314 ft | 419 kts | 210° |
| 2026-05-05 11:29 | 69.11219 | 17.53644 | 27718 ft | 423 kts | 210° |
| 2026-05-05 11:29 | 69.08655 | 17.49551 | 28108 ft | 426 kts | 210° |
| 2026-05-05 11:30 | 69.06071 | 17.45443 | 28499 ft | 429 kts | 210° |
| 2026-05-05 11:30 | 69.03462 | 17.41307 | 28876 ft | 432 kts | 210° |
| 2026-05-05 11:30 | 69.00838 | 17.37154 | 29232 ft | 436 kts | 210° |
| 2026-05-05 11:30 | 68.98192 | 17.32977 | 29602 ft | 439 kts | 210° |
| 2026-05-05 11:31 | 68.95526 | 17.28786 | 29874 ft | 442 kts | 209° |
| 2026-05-05 11:31 | 68.92839 | 17.24578 | 30140 ft | 444 kts | 209° |
| 2026-05-05 11:31 | 68.90136 | 17.20355 | 30434 ft | 446 kts | 210° |
| 2026-05-05 11:31 | 68.87425 | 17.16129 | 30706 ft | 448 kts | 209° |
| 2026-05-05 11:32 | 68.84699 | 17.11891 | 30966 ft | 451 kts | 209° |
| 2026-05-05 11:32 | 68.81956 | 17.07634 | 31289 ft | 451 kts | 209° |
| 2026-05-05 11:32 | 68.79222 | 17.03407 | 31673 ft | 450 kts | 209° |
| 2026-05-05 11:32 | 68.76479 | 16.99279 | 32036 ft | 450 kts | 206° |
| 2026-05-05 11:33 | 68.73569 | 16.96109 | 32403 ft | 450 kts | 197° |
| 2026-05-05 11:33 | 68.70532 | 16.94067 | 32773 ft | 449 kts | 193° |
| 2026-05-05 11:33 | 68.67479 | 16.92195 | 33120 ft | 449 kts | 193° |
| 2026-05-05 11:33 | 68.64429 | 16.90315 | 33485 ft | 449 kts | 193° |
| 2026-05-05 11:34 | 68.61380 | 16.88425 | 33803 ft | 449 kts | 193° |
| 2026-05-05 11:34 | 68.58337 | 16.86537 | 34126 ft | 449 kts | 193° |
| 2026-05-05 11:34 | 68.55293 | 16.84655 | 34426 ft | 448 kts | 193° |
| 2026-05-05 11:34 | 68.52251 | 16.82780 | 34693 ft | 448 kts | 193° |
| 2026-05-05 11:35 | 68.49204 | 16.80902 | 34950 ft | 448 kts | 193° |
| 2026-05-05 11:35 | 68.46159 | 16.79036 | 35214 ft | 448 kts | 193° |
| 2026-05-05 11:35 | 68.43116 | 16.77182 | 35466 ft | 448 kts | 193° |
| 2026-05-05 11:35 | 68.40077 | 16.75339 | 35703 ft | 448 kts | 193° |
| 2026-05-05 11:36 | 68.37029 | 16.73494 | 35927 ft | 448 kts | 193° |
| 2026-05-05 11:36 | 68.35014 | 16.72273 | 36067 ft | 448 kts | 193° |
| 2026-05-05 11:36 | 68.30948 | 16.69817 | 36371 ft | 447 kts | 194° |
| 2026-05-05 11:36 | 68.27945 | 16.68006 | 36586 ft | 447 kts | 194° |
| 2026-05-05 11:37 | 68.24910 | 16.66181 | 36773 ft | 447 kts | 194° |
| 2026-05-05 11:37 | 68.21879 | 16.64369 | 36956 ft | 447 kts | 193° |
| 2026-05-05 11:37 | 68.18837 | 16.62562 | 37136 ft | 447 kts | 194° |
| 2026-05-05 11:37 | 68.15799 | 16.60763 | 37315 ft | 447 kts | 194° |
| 2026-05-05 11:38 | 68.13748 | 16.59547 | 37430 ft | 447 kts | 194° |
| 2026-05-05 11:38 | 68.10711 | 16.57746 | 37582 ft | 447 kts | 194° |
| 2026-05-05 11:38 | 68.07672 | 16.55942 | 37611 ft | 447 kts | 194° |
| 2026-05-05 11:39 | 68.01590 | 16.52350 | 37615 ft | 447 kts | 194° |
| 2026-05-05 11:39 | 67.95552 | 16.48820 | 37618 ft | 447 kts | 194° |
| 2026-05-05 11:40 | 67.89474 | 16.45271 | 37624 ft | 447 kts | 195° |
| 2026-05-05 11:40 | 67.83712 | 16.39412 | 37623 ft | 444 kts | 207° |
| 2026-05-05 11:41 | 67.78123 | 16.32450 | 37631 ft | 444 kts | 206° |
| 2026-05-05 11:41 | 67.72525 | 16.25539 | 37637 ft | 444 kts | 206° |
| 2026-05-05 11:42 | 67.66935 | 16.18674 | 37628 ft | 444 kts | 206° |
| 2026-05-05 11:42 | 67.61337 | 16.11829 | 37639 ft | 443 kts | 206° |
| 2026-05-05 11:43 | 67.55743 | 16.05010 | 37640 ft | 443 kts | 206° |
| 2026-05-05 11:43 | 67.50145 | 15.98232 | 37647 ft | 443 kts | 206° |
| 2026-05-05 11:44 | 67.44544 | 15.91500 | 37647 ft | 443 kts | 206° |
| 2026-05-05 11:44 | 67.38943 | 15.84791 | 37642 ft | 443 kts | 206° |
| 2026-05-05 11:45 | 67.33343 | 15.78108 | 37649 ft | 443 kts | 206° |
| 2026-05-05 11:45 | 67.27744 | 15.71473 | 37654 ft | 443 kts | 206° |
| 2026-05-05 11:46 | 67.22133 | 15.64869 | 37657 ft | 443 kts | 206° |
| 2026-05-05 11:46 | 67.16519 | 15.58287 | 37651 ft | 444 kts | 206° |
| 2026-05-05 11:47 | 67.10895 | 15.51701 | 37651 ft | 444 kts | 206° |
| 2026-05-05 11:47 | 67.05263 | 15.45151 | 37650 ft | 444 kts | 206° |
| 2026-05-05 11:48 | 66.96840 | 15.35439 | 37649 ft | 445 kts | 206° |
| 2026-05-05 11:48 | 66.91197 | 15.28984 | 37654 ft | 445 kts | 206° |
| 2026-05-05 11:49 | 66.85553 | 15.22547 | 37655 ft | 445 kts | 206° |
| 2026-05-05 11:49 | 66.79908 | 15.16131 | 37651 ft | 445 kts | 206° |
| 2026-05-05 11:50 | 66.74255 | 15.09740 | 37655 ft | 445 kts | 205° |
| 2026-05-05 11:50 | 66.68596 | 15.03395 | 37671 ft | 445 kts | 205° |
| 2026-05-05 11:51 | 66.62943 | 14.97066 | 37669 ft | 444 kts | 205° |
| 2026-05-05 11:51 | 66.57288 | 14.90765 | 37679 ft | 445 kts | 205° |
| 2026-05-05 11:52 | 66.51630 | 14.84495 | 37677 ft | 445 kts | 205° |
| 2026-05-05 11:52 | 66.45964 | 14.78263 | 37673 ft | 444 kts | 205° |
| 2026-05-05 11:53 | 66.40309 | 14.72071 | 37681 ft | 444 kts | 205° |
| 2026-05-05 11:53 | 66.34645 | 14.65898 | 37683 ft | 444 kts | 205° |
| 2026-05-05 11:54 | 66.28987 | 14.59757 | 37680 ft | 443 kts | 205° |
| 2026-05-05 11:54 | 66.23330 | 14.53641 | 37684 ft | 443 kts | 205° |
| 2026-05-05 11:55 | 66.17673 | 14.47556 | 37678 ft | 443 kts | 205° |
| 2026-05-05 11:55 | 66.12008 | 14.41504 | 37685 ft | 443 kts | 205° |
| 2026-05-05 11:56 | 66.06349 | 14.35478 | 37690 ft | 443 kts | 205° |
| 2026-05-05 11:56 | 66.00724 | 14.29518 | 37692 ft | 443 kts | 205° |
| 2026-05-05 11:57 | 65.95056 | 14.23549 | 37695 ft | 443 kts | 205° |
| 2026-05-05 11:57 | 65.89393 | 14.17617 | 37676 ft | 443 kts | 205° |
| 2026-05-05 11:58 | 65.83727 | 14.11706 | 37692 ft | 443 kts | 205° |
| 2026-05-05 11:58 | 65.78064 | 14.05816 | 37698 ft | 443 kts | 205° |
| 2026-05-05 11:59 | 65.72395 | 13.99952 | 37707 ft | 442 kts | 205° |
| 2026-05-05 11:59 | 65.66724 | 13.94134 | 37710 ft | 442 kts | 205° |
| 2026-05-05 12:00 | 65.61054 | 13.88332 | 37691 ft | 442 kts | 205° |
| 2026-05-05 12:00 | 65.55381 | 13.82543 | 37703 ft | 442 kts | 205° |
| 2026-05-05 12:01 | 65.49713 | 13.76783 | 37719 ft | 442 kts | 205° |
| 2026-05-05 12:01 | 65.44036 | 13.71053 | 37717 ft | 442 kts | 205° |
| 2026-05-05 12:02 | 65.38365 | 13.65356 | 37723 ft | 442 kts | 205° |
| 2026-05-05 12:02 | 65.32685 | 13.59681 | 37733 ft | 442 kts | 205° |
| 2026-05-05 12:03 | 65.27009 | 13.54029 | 37718 ft | 442 kts | 205° |
| 2026-05-05 12:03 | 65.21328 | 13.48410 | 37728 ft | 442 kts | 205° |
| 2026-05-05 12:04 | 65.15657 | 13.42818 | 37747 ft | 441 kts | 205° |
| 2026-05-05 12:04 | 65.09979 | 13.37247 | 37756 ft | 441 kts | 205° |
| 2026-05-05 12:05 | 65.04303 | 13.31701 | 37752 ft | 441 kts | 205° |
| 2026-05-05 12:05 | 64.98630 | 13.26177 | 37747 ft | 441 kts | 205° |
| 2026-05-05 12:06 | 64.92955 | 13.20686 | 37758 ft | 441 kts | 205° |
| 2026-05-05 12:06 | 64.87281 | 13.15228 | 37767 ft | 440 kts | 205° |
| 2026-05-05 12:07 | 64.81637 | 13.09816 | 37784 ft | 440 kts | 205° |
| 2026-05-05 12:07 | 64.75960 | 13.04388 | 37785 ft | 441 kts | 205° |
| 2026-05-05 12:08 | 64.70281 | 12.98982 | 37768 ft | 440 kts | 205° |
| 2026-05-05 12:08 | 64.64603 | 12.93610 | 37786 ft | 440 kts | 205° |
| 2026-05-05 12:09 | 64.58927 | 12.88274 | 37792 ft | 440 kts | 205° |
| 2026-05-05 12:09 | 64.53244 | 12.82946 | 37801 ft | 440 kts | 205° |
| 2026-05-05 12:10 | 64.47562 | 12.77632 | 37802 ft | 440 kts | 205° |
| 2026-05-05 12:10 | 64.41880 | 12.72352 | 37782 ft | 440 kts | 205° |
| 2026-05-05 12:11 | 64.36200 | 12.67102 | 37805 ft | 440 kts | 205° |
| 2026-05-05 12:11 | 64.30516 | 12.61862 | 37844 ft | 440 kts | 205° |
| 2026-05-05 12:12 | 64.24833 | 12.56658 | 37873 ft | 440 kts | 205° |
| 2026-05-05 12:12 | 64.19151 | 12.51485 | 37904 ft | 439 kts | 205° |
| 2026-05-05 12:13 | 64.13502 | 12.46346 | 37925 ft | 439 kts | 205° |
| 2026-05-05 12:13 | 64.07815 | 12.41199 | 37934 ft | 439 kts | 205° |
| 2026-05-05 12:14 | 64.02129 | 12.36072 | 37934 ft | 440 kts | 204° |
| 2026-05-05 12:14 | 63.96432 | 12.30982 | 37824 ft | 440 kts | 204° |
| 2026-05-05 12:15 | 63.90693 | 12.26114 | 37834 ft | 440 kts | 203° |
| 2026-05-05 12:15 | 63.84939 | 12.21378 | 37839 ft | 440 kts | 203° |
| 2026-05-05 12:16 | 63.79188 | 12.16645 | 37835 ft | 440 kts | 203° |
| 2026-05-05 12:16 | 63.73439 | 12.11896 | 37842 ft | 440 kts | 203° |
| 2026-05-05 12:17 | 63.67694 | 12.07142 | 37854 ft | 440 kts | 203° |
| 2026-05-05 12:17 | 63.61951 | 12.02408 | 37855 ft | 439 kts | 203° |
| 2026-05-05 12:18 | 63.56233 | 11.97738 | 37862 ft | 440 kts | 203° |
| 2026-05-05 12:18 | 63.50483 | 11.93066 | 37847 ft | 439 kts | 203° |
| 2026-05-05 12:19 | 63.44737 | 11.88411 | 37864 ft | 439 kts | 203° |
| 2026-05-05 12:19 | 63.38993 | 11.83787 | 37870 ft | 439 kts | 203° |
| 2026-05-05 12:20 | 63.33226 | 11.79290 | 37879 ft | 440 kts | 201° |
| 2026-05-05 12:20 | 63.27335 | 11.75577 | 37880 ft | 441 kts | 198° |
| 2026-05-05 12:21 | 63.21376 | 11.72218 | 37867 ft | 441 kts | 198° |
| 2026-05-05 12:21 | 63.15443 | 11.68795 | 37879 ft | 441 kts | 199° |
| 2026-05-05 12:22 | 63.09528 | 11.65235 | 37876 ft | 440 kts | 199° |
| 2026-05-05 12:22 | 63.03615 | 11.61668 | 37878 ft | 441 kts | 199° |
| 2026-05-05 12:23 | 62.97695 | 11.58141 | 37880 ft | 440 kts | 199° |
| 2026-05-05 12:23 | 62.91816 | 11.54668 | 37859 ft | 440 kts | 199° |
| 2026-05-05 12:24 | 62.85900 | 11.51190 | 37847 ft | 440 kts | 199° |
| 2026-05-05 12:24 | 62.79982 | 11.47735 | 37832 ft | 440 kts | 199° |
| 2026-05-05 12:25 | 62.75066 | 11.44868 | 37819 ft | 440 kts | 199° |
| 2026-05-05 12:25 | 62.69152 | 11.41414 | 37799 ft | 440 kts | 199° |
| 2026-05-05 12:26 | 62.63246 | 11.37988 | 37770 ft | 439 kts | 199° |
| 2026-05-05 12:26 | 62.57329 | 11.34566 | 37867 ft | 439 kts | 199° |
| 2026-05-05 12:27 | 62.51417 | 11.31166 | 37874 ft | 439 kts | 199° |
| 2026-05-05 12:27 | 62.45508 | 11.27789 | 37876 ft | 439 kts | 199° |
| 2026-05-05 12:28 | 62.39604 | 11.24428 | 37871 ft | 439 kts | 199° |
| 2026-05-05 12:28 | 62.33694 | 11.21081 | 37847 ft | 439 kts | 199° |
| 2026-05-05 12:29 | 62.27785 | 11.17745 | 37855 ft | 439 kts | 199° |
| 2026-05-05 12:29 | 62.21883 | 11.14397 | 37861 ft | 439 kts | 199° |
| 2026-05-05 12:30 | 62.16014 | 11.11097 | 37868 ft | 439 kts | 199° |
| 2026-05-05 12:30 | 62.10105 | 11.07814 | 37872 ft | 439 kts | 199° |
| 2026-05-05 12:31 | 62.04197 | 11.04530 | 37831 ft | 439 kts | 199° |
| 2026-05-05 12:31 | 61.98291 | 11.01246 | 37643 ft | 439 kts | 199° |
| 2026-05-05 12:32 | 61.95296 | 10.99580 | 36716 ft | 449 kts | 199° |
| 2026-05-05 12:32 | 61.92265 | 10.97907 | 36142 ft | 449 kts | 199° |
| 2026-05-05 12:32 | 61.89255 | 10.96258 | 35746 ft | 445 kts | 199° |
| 2026-05-05 12:32 | 61.86270 | 10.94632 | 35302 ft | 441 kts | 199° |
| 2026-05-05 12:33 | 61.83304 | 10.93022 | 34857 ft | 438 kts | 200° |
| 2026-05-05 12:33 | 61.80364 | 10.91420 | 34402 ft | 435 kts | 200° |
| 2026-05-05 12:33 | 61.77446 | 10.89828 | 33933 ft | 432 kts | 200° |
| 2026-05-05 12:33 | 61.74546 | 10.88247 | 33431 ft | 428 kts | 200° |
| 2026-05-05 12:34 | 61.71682 | 10.86691 | 32983 ft | 423 kts | 200° |
| 2026-05-05 12:34 | 61.68850 | 10.85153 | 32528 ft | 417 kts | 200° |
| 2026-05-05 12:34 | 61.66073 | 10.83651 | 32099 ft | 409 kts | 201° |
| 2026-05-05 12:34 | 61.63335 | 10.82174 | 31655 ft | 403 kts | 201° |
| 2026-05-05 12:35 | 61.60632 | 10.80716 | 31251 ft | 398 kts | 201° |
| 2026-05-05 12:35 | 61.57972 | 10.79284 | 30835 ft | 393 kts | 201° |
| 2026-05-05 12:35 | 61.55342 | 10.77868 | 30436 ft | 387 kts | 201° |
| 2026-05-05 12:35 | 61.52745 | 10.76474 | 30036 ft | 383 kts | 201° |
| 2026-05-05 12:36 | 61.50181 | 10.75098 | 29598 ft | 377 kts | 201° |
| 2026-05-05 12:36 | 61.47697 | 10.73774 | 29238 ft | 368 kts | 203° |
| 2026-05-05 12:36 | 61.45237 | 10.72464 | 28887 ft | 362 kts | 203° |
| 2026-05-05 12:36 | 61.42821 | 10.71177 | 28543 ft | 356 kts | 203° |
| 2026-05-05 12:37 | 61.40433 | 10.69903 | 28200 ft | 352 kts | 203° |
| 2026-05-05 12:37 | 61.38074 | 10.68644 | 27865 ft | 348 kts | 203° |
| 2026-05-05 12:37 | 61.35742 | 10.67402 | 27523 ft | 344 kts | 203° |
| 2026-05-05 12:37 | 61.33432 | 10.66175 | 27174 ft | 340 kts | 203° |
| 2026-05-05 12:38 | 61.31153 | 10.64968 | 26855 ft | 336 kts | 203° |
| 2026-05-05 12:38 | 61.28900 | 10.63781 | 26515 ft | 332 kts | 203° |
| 2026-05-05 12:38 | 61.26679 | 10.62609 | 26182 ft | 328 kts | 203° |
| 2026-05-05 12:38 | 61.24478 | 10.61449 | 25851 ft | 324 kts | 204° |
| 2026-05-05 12:39 | 61.22302 | 10.60305 | 25496 ft | 321 kts | 204° |
| 2026-05-05 12:39 | 61.20134 | 10.59218 | 25142 ft | 320 kts | 202° |
| 2026-05-05 12:39 | 61.17956 | 10.58295 | 24787 ft | 319 kts | 200° |
| 2026-05-05 12:39 | 61.15783 | 10.57469 | 24425 ft | 318 kts | 199° |
| 2026-05-05 12:40 | 61.13601 | 10.56679 | 24057 ft | 317 kts | 199° |
| 2026-05-05 12:40 | 61.11432 | 10.55901 | 23688 ft | 316 kts | 199° |
| 2026-05-05 12:40 | 61.09272 | 10.55111 | 23301 ft | 315 kts | 199° |
| 2026-05-05 12:40 | 61.07122 | 10.54307 | 22901 ft | 313 kts | 199° |
| 2026-05-05 12:41 | 61.04993 | 10.53502 | 22533 ft | 310 kts | 199° |
| 2026-05-05 12:41 | 61.02881 | 10.52702 | 22174 ft | 307 kts | 199° |
| 2026-05-05 12:41 | 61.00788 | 10.51904 | 21814 ft | 305 kts | 199° |
| 2026-05-05 12:41 | 60.98707 | 10.51110 | 21448 ft | 303 kts | 198° |
| 2026-05-05 12:42 | 60.96645 | 10.50320 | 21103 ft | 300 kts | 198° |
| 2026-05-05 12:42 | 60.94597 | 10.49538 | 20749 ft | 299 kts | 198° |
| 2026-05-05 12:42 | 60.92561 | 10.48766 | 20362 ft | 297 kts | 198° |
| 2026-05-05 12:42 | 60.90529 | 10.47998 | 20040 ft | 296 kts | 199° |
| 2026-05-05 12:43 | 60.88501 | 10.47228 | 19693 ft | 296 kts | 198° |
| 2026-05-05 12:43 | 60.86445 | 10.46766 | 19528 ft | 304 kts | 184° |
| 2026-05-05 12:43 | 60.84329 | 10.47629 | 19459 ft | 314 kts | 172° |
| 2026-05-05 12:43 | 60.82232 | 10.48807 | 19390 ft | 314 kts | 171° |
| 2026-05-05 12:44 | 60.80113 | 10.50035 | 19317 ft | 315 kts | 171° |
| 2026-05-05 12:44 | 60.78010 | 10.51268 | 19245 ft | 314 kts | 171° |
| 2026-05-05 12:44 | 60.75908 | 10.52499 | 19175 ft | 314 kts | 171° |
| 2026-05-05 12:44 | 60.73808 | 10.53723 | 19104 ft | 314 kts | 171° |
| 2026-05-05 12:45 | 60.71740 | 10.54918 | 19033 ft | 313 kts | 171° |
| 2026-05-05 12:45 | 60.69611 | 10.56140 | 18964 ft | 313 kts | 171° |
| 2026-05-05 12:45 | 60.67520 | 10.57336 | 18890 ft | 312 kts | 171° |
| 2026-05-05 12:45 | 60.65465 | 10.58511 | 18816 ft | 311 kts | 171° |
| 2026-05-05 12:46 | 60.63377 | 10.59704 | 18752 ft | 311 kts | 170° |
| 2026-05-05 12:46 | 60.61291 | 10.60889 | 18637 ft | 311 kts | 173° |
| 2026-05-05 12:46 | 60.59205 | 10.62068 | 18583 ft | 311 kts | 173° |
| 2026-05-05 12:46 | 60.57123 | 10.63245 | 18505 ft | 310 kts | 173° |
| 2026-05-05 12:47 | 60.55044 | 10.64423 | 18436 ft | 310 kts | 173° |
| 2026-05-05 12:47 | 60.52966 | 10.65597 | 18370 ft | 310 kts | 173° |
| 2026-05-05 12:47 | 60.50891 | 10.66769 | 18310 ft | 310 kts | 173° |
| 2026-05-05 12:47 | 60.48816 | 10.67942 | 18243 ft | 309 kts | 172° |
| 2026-05-05 12:48 | 60.46715 | 10.69027 | 18168 ft | 317 kts | 180° |
| 2026-05-05 12:48 | 60.44525 | 10.69042 | 17950 ft | 317 kts | 193° |
| 2026-05-05 12:48 | 60.42325 | 10.68534 | 17361 ft | 319 kts | 194° |
| 2026-05-05 12:48 | 60.40124 | 10.67922 | 16795 ft | 320 kts | 195° |
| 2026-05-05 12:49 | 60.37921 | 10.67211 | 16234 ft | 319 kts | 199° |
| 2026-05-05 12:49 | 60.35949 | 10.65411 | 15687 ft | 307 kts | 222° |
| 2026-05-05 12:49 | 60.34585 | 10.62219 | 15154 ft | 299 kts | 246° |
| 2026-05-05 12:49 | 60.34051 | 10.58240 | 14624 ft | 295 kts | 270° |
| 2026-05-05 12:50 | 60.34436 | 10.54219 | 14106 ft | 295 kts | 295° |
| 2026-05-05 12:50 | 60.35667 | 10.50926 | 13581 ft | 298 kts | 319° |
| 2026-05-05 12:50 | 60.37510 | 10.49018 | 13003 ft | 303 kts | 344° |
| 2026-05-05 12:50 | 60.39625 | 10.48887 | 12444 ft | 310 kts | 8° |
| 2026-05-05 12:51 | 60.41619 | 10.50596 | 11887 ft | 318 kts | 32° |
| 2026-05-05 12:51 | 60.43131 | 10.53885 | 11329 ft | 321 kts | 58° |
| 2026-05-05 12:51 | 60.43843 | 10.58098 | 10803 ft | 317 kts | 83° |
| 2026-05-05 12:51 | 60.43638 | 10.62460 | 10280 ft | 311 kts | 109° |
| 2026-05-05 12:52 | 60.42572 | 10.66175 | 9757 ft | 303 kts | 135° |
| 2026-05-05 12:52 | 60.40880 | 10.68526 | 9209 ft | 292 kts | 163° |
| 2026-05-05 12:52 | 60.38928 | 10.69182 | 8656 ft | 282 kts | 182° |
| 2026-05-05 12:52 | 60.36981 | 10.69175 | 8111 ft | 280 kts | 184° |
| 2026-05-05 12:53 | 60.35034 | 10.69186 | 7575 ft | 279 kts | 184° |
| 2026-05-05 12:53 | 60.33101 | 10.69228 | 7044 ft | 277 kts | 184° |
| 2026-05-05 12:53 | 60.31164 | 10.69280 | 6521 ft | 281 kts | 182° |
| 2026-05-05 12:53 | 60.29190 | 10.69332 | 5994 ft | 286 kts | 182° |
| 2026-05-05 12:54 | 60.25290 | 10.69450 | 5675 ft | 277 kts | 183° |
| 2026-05-05 12:54 | 60.23368 | 10.69507 | 5535 ft | 275 kts | 182° |
| 2026-05-05 12:54 | 60.21458 | 10.69561 | 5406 ft | 274 kts | 183° |
| 2026-05-05 12:55 | 60.19561 | 10.69611 | 5256 ft | 268 kts | 182° |
| 2026-05-05 12:55 | 60.17728 | 10.69657 | 5134 ft | 259 kts | 182° |
| 2026-05-05 12:55 | 60.15948 | 10.69704 | 5024 ft | 251 kts | 183° |
| 2026-05-05 12:55 | 60.14246 | 10.69745 | 5003 ft | 244 kts | 183° |
| 2026-05-05 12:56 | 60.12557 | 10.69912 | 4999 ft | 244 kts | 171° |
| 2026-05-05 12:56 | 60.11000 | 10.71271 | 4997 ft | 245 kts | 144° |
| 2026-05-05 12:56 | 60.09899 | 10.73822 | 5000 ft | 240 kts | 117° |
| 2026-05-05 12:56 | 60.09298 | 10.76929 | 5005 ft | 238 kts | 109° |
| 2026-05-05 12:57 | 60.08738 | 10.80051 | 5002 ft | 238 kts | 109° |
| 2026-05-05 12:57 | 60.08165 | 10.83213 | 4546 ft | 248 kts | 110° |
| 2026-05-05 12:57 | 60.07790 | 10.86629 | 3831 ft | 255 kts | 92° |
| 2026-05-05 12:57 | 60.07705 | 10.90154 | 3364 ft | 250 kts | 83° |
| 2026-05-05 12:58 | 60.08157 | 10.93380 | 3056 ft | 235 kts | 64° |
| 2026-05-05 12:58 | 60.08878 | 10.96166 | 3000 ft | 217 kts | 51° |
| 2026-05-05 12:58 | 60.09686 | 10.98519 | 3032 ft | 190 kts | 51° |
| 2026-05-05 12:58 | 60.10438 | 11.00474 | 3004 ft | 164 kts | 38° |
| 2026-05-05 12:59 | 60.11309 | 11.01707 | 2933 ft | 147 kts | 27° |
| 2026-05-05 12:59 | 60.12134 | 11.02823 | 2715 ft | 139 kts | 26° |
| 2026-05-05 12:59 | 60.12964 | 11.03798 | 2396 ft | 137 kts | 22° |
| 2026-05-05 13:00 | 60.14705 | 11.05216 | 1770 ft | 132 kts | 9° |
| 2026-05-05 13:00 | 60.15591 | 11.05731 | 1343 ft | 132 kts | 8° |
| 2026-05-05 13:01 | 60.18220 | 11.07217 | 790 ft | 131 kts | 13° |
| 2026-05-05 13:01 | 60.19068 | 11.07696 | 685 ft | 116 kts | 16° |
| 2026-05-05 13:01 | 60.19691 | 11.08058 | 677 ft | 71 kts | 16° |
| 2026-05-05 13:01 | 60.19970 | 11.08230 | 677 ft | 24 kts | 17° |
| 2026-05-05 13:02 | 60.20151 | 11.08356 | 675 ft | 30 kts | 27° |
| 2026-05-05 13:02 | 60.20251 | 11.08591 | 677 ft | 14 kts | 90° |
| 2026-05-05 13:02 | 60.20244 | 11.08662 | 677 ft | 0 kts | 104° |
| 2026-05-05 13:03 | 60.20241 | 11.08688 | 675 ft | 5 kts | 104° |
| 2026-05-05 13:03 | 60.20229 | 11.08778 | 677 ft | 9 kts | 105° |
| 2026-05-05 13:03 | 60.20209 | 11.08911 | 675 ft | 11 kts | 109° |
| 2026-05-05 13:03 | 60.20182 | 11.09072 | 675 ft | 13 kts | 106° |
| 2026-05-05 13:04 | 60.20155 | 11.09263 | 675 ft | 15 kts | 106° |
| 2026-05-05 13:04 | 60.20124 | 11.09482 | 675 ft | 17 kts | 106° |
| 2026-05-05 13:04 | 60.20088 | 11.09729 | 678 ft | 19 kts | 106° |
| 2026-05-05 13:04 | 60.20061 | 11.09910 | 678 ft | 10 kts | 118° |
| 2026-05-05 13:05 | 60.20006 | 11.09934 | 679 ft | 9 kts | 194° |
| 2026-05-05 13:05 | 60.19939 | 11.09895 | 678 ft | 11 kts | 197° |
| 2026-05-05 13:05 | 60.19855 | 11.09846 | 679 ft | 14 kts | 195° |
| 2026-05-05 13:05 | 60.19752 | 11.09786 | 679 ft | 15 kts | 197° |
| 2026-05-05 13:06 | 60.19657 | 11.09732 | 679 ft | 14 kts | 194° |
| 2026-05-05 13:06 | 60.19599 | 11.09759 | 679 ft | 8 kts | 153° |
| 2026-05-05 13:06 | 60.19570 | 11.09759 | 679 ft | 3 kts | 192° |
| 2026-05-05 13:06 | 60.19547 | 11.09748 | 679 ft | 3 kts | 193° |
| 2026-05-05 13:07 | 60.19536 | 11.09742 | 679 ft | 1 kts | 193° |
| 2026-05-05 13:07 | 60.19532 | 11.09741 | 679 ft | 0 kts | 193° |